sensor_id;sensor_type;location;lat;lon;timestamp;P1;durP1;ratioP1;P2;durP2;ratioP2
64235;SDS011;50564;47.402;9.740;2023-05-27T00:00:32;10.38;;;7.65;;
64235;SDS011;50564;47.402;9.740;2023-05-27T00:05:33;9.82;;;7.20;;
64235;SDS011;50564;47.402;9.740;2023-05-27T00:10:34;10.35;;;7.20;;
64235;SDS011;50564;47.402;9.740;2023-05-27T00:15:35;12.25;;;7.32;;
64235;SDS011;50564;47.402;9.740;2023-05-27T00:20:35;11.52;;;8.10;;
64235;SDS011;50564;47.402;9.740;2023-05-27T00:25:36;12.05;;;7.78;;
64235;SDS011;50564;47.402;9.740;2023-05-27T00:30:37;11.60;;;8.73;;
64235;SDS011;50564;47.402;9.740;2023-05-27T00:35:37;10.45;;;8.18;;
64235;SDS011;50564;47.402;9.740;2023-05-27T00:40:38;11.25;;;7.55;;
64235;SDS011;50564;47.402;9.740;2023-05-27T00:45:39;11.07;;;8.48;;
64235;SDS011;50564;47.402;9.740;2023-05-27T00:50:40;11.80;;;7.57;;
64235;SDS011;50564;47.402;9.740;2023-05-27T00:55:41;11.98;;;7.78;;
64235;SDS011;50564;47.402;9.740;2023-05-27T01:00:41;11.57;;;7.72;;
64235;SDS011;50564;47.402;9.740;2023-05-27T01:05:42;13.25;;;7.60;;
64235;SDS011;50564;47.402;9.740;2023-05-27T01:10:48;11.68;;;8.43;;
64235;SDS011;50564;47.402;9.740;2023-05-27T01:20:51;12.63;;;8.45;;
64235;SDS011;50564;47.402;9.740;2023-05-27T01:25:54;11.43;;;8.32;;
64235;SDS011;50564;47.402;9.740;2023-05-27T01:30:55;13.50;;;8.18;;
64235;SDS011;50564;47.402;9.740;2023-05-27T01:36:09;10.40;;;7.78;;
64235;SDS011;50564;47.402;9.740;2023-05-27T01:41:13;12.68;;;8.45;;
64235;SDS011;50564;47.402;9.740;2023-05-27T01:46:14;14.18;;;8.32;;
64235;SDS011;50564;47.402;9.740;2023-05-27T01:51:15;11.48;;;8.50;;
64235;SDS011;50564;47.402;9.740;2023-05-27T01:56:16;11.45;;;8.82;;
64235;SDS011;50564;47.402;9.740;2023-05-27T02:01:16;14.30;;;8.65;;
64235;SDS011;50564;47.402;9.740;2023-05-27T02:06:17;14.70;;;8.50;;
64235;SDS011;50564;47.402;9.740;2023-05-27T02:11:18;13.98;;;9.10;;
64235;SDS011;50564;47.402;9.740;2023-05-27T02:16:18;12.30;;;8.32;;
64235;SDS011;50564;47.402;9.740;2023-05-27T02:21:22;12.52;;;8.95;;
64235;SDS011;50564;47.402;9.740;2023-05-27T02:26:23;10.85;;;8.93;;
64235;SDS011;50564;47.402;9.740;2023-05-27T02:31:25;11.20;;;8.20;;
64235;SDS011;50564;47.402;9.740;2023-05-27T02:36:25;11.65;;;8.80;;
64235;SDS011;50564;47.402;9.740;2023-05-27T02:41:27;12.93;;;9.07;;
64235;SDS011;50564;47.402;9.740;2023-05-27T02:46:28;13.15;;;8.50;;
64235;SDS011;50564;47.402;9.740;2023-05-27T02:51:28;13.52;;;10.30;;
64235;SDS011;50564;47.402;9.740;2023-05-27T02:56:29;11.65;;;9.35;;
64235;SDS011;50564;47.402;9.740;2023-05-27T03:01:30;13.10;;;9.77;;
64235;SDS011;50564;47.402;9.740;2023-05-27T03:06:31;14.30;;;9.60;;
64235;SDS011;50564;47.402;9.740;2023-05-27T03:11:32;13.45;;;9.02;;
64235;SDS011;50564;47.402;9.740;2023-05-27T03:16:33;11.93;;;9.27;;
64235;SDS011;50564;47.402;9.740;2023-05-27T03:21:34;14.35;;;10.20;;
64235;SDS011;50564;47.402;9.740;2023-05-27T03:26:36;11.52;;;9.13;;
64235;SDS011;50564;47.402;9.740;2023-05-27T03:31:39;13.82;;;9.30;;
64235;SDS011;50564;47.402;9.740;2023-05-27T03:36:44;13.88;;;9.38;;
64235;SDS011;50564;47.402;9.740;2023-05-27T03:41:46;12.52;;;9.25;;
64235;SDS011;50564;47.402;9.740;2023-05-27T03:46:47;12.73;;;9.57;;
64235;SDS011;50564;47.402;9.740;2023-05-27T03:51:48;13.15;;;9.40;;
64235;SDS011;50564;47.402;9.740;2023-05-27T03:56:49;12.93;;;9.90;;
64235;SDS011;50564;47.402;9.740;2023-05-27T04:01:51;12.27;;;8.88;;
64235;SDS011;50564;47.402;9.740;2023-05-27T04:06:51;13.90;;;9.18;;
64235;SDS011;50564;47.402;9.740;2023-05-27T04:11:53;13.10;;;9.57;;
64235;SDS011;50564;47.402;9.740;2023-05-27T04:16:57;14.52;;;9.90;;
64235;SDS011;50564;47.402;9.740;2023-05-27T04:21:58;15.10;;;9.68;;
64235;SDS011;50564;47.402;9.740;2023-05-27T04:26:59;12.55;;;8.80;;
64235;SDS011;50564;47.402;9.740;2023-05-27T04:32:00;12.98;;;9.35;;
64235;SDS011;50564;47.402;9.740;2023-05-27T04:37:00;12.80;;;9.18;;
64235;SDS011;50564;47.402;9.740;2023-05-27T04:42:02;13.05;;;9.13;;
64235;SDS011;50564;47.402;9.740;2023-05-27T04:47:06;11.05;;;8.70;;
64235;SDS011;50564;47.402;9.740;2023-05-27T04:52:07;13.80;;;9.43;;
64235;SDS011;50564;47.402;9.740;2023-05-27T04:57:09;12.48;;;8.43;;
64235;SDS011;50564;47.402;9.740;2023-05-27T05:02:10;12.00;;;8.48;;
64235;SDS011;50564;47.402;9.740;2023-05-27T05:07:32;14.60;;;9.95;;
64235;SDS011;50564;47.402;9.740;2023-05-27T05:12:41;13.20;;;8.65;;
64235;SDS011;50564;47.402;9.740;2023-05-27T05:17:42;11.75;;;7.78;;
64235;SDS011;50564;47.402;9.740;2023-05-27T05:22:43;11.38;;;8.82;;
64235;SDS011;50564;47.402;9.740;2023-05-27T05:27:44;13.38;;;9.30;;
64235;SDS011;50564;47.402;9.740;2023-05-27T05:32:45;11.13;;;8.38;;
64235;SDS011;50564;47.402;9.740;2023-05-27T05:37:46;14.52;;;8.68;;
64235;SDS011;50564;47.402;9.740;2023-05-27T05:42:46;13.68;;;9.07;;
64235;SDS011;50564;47.402;9.740;2023-05-27T05:47:47;14.10;;;9.43;;
64235;SDS011;50564;47.402;9.740;2023-05-27T05:52:52;12.68;;;9.93;;
64235;SDS011;50564;47.402;9.740;2023-05-27T05:57:53;14.45;;;10.05;;
64235;SDS011;50564;47.402;9.740;2023-05-27T06:02:54;17.58;;;11.20;;
64235;SDS011;50564;47.402;9.740;2023-05-27T06:08:23;14.70;;;9.88;;
64235;SDS011;50564;47.402;9.740;2023-05-27T06:13:34;13.48;;;10.80;;
64235;SDS011;50564;47.402;9.740;2023-05-27T06:18:38;14.43;;;9.98;;
64235;SDS011;50564;47.402;9.740;2023-05-27T06:23:39;16.08;;;11.30;;
64235;SDS011;50564;47.402;9.740;2023-05-27T06:28:47;14.60;;;10.05;;
64235;SDS011;50564;47.402;9.740;2023-05-27T06:33:49;16.42;;;9.43;;
64235;SDS011;50564;47.402;9.740;2023-05-27T06:38:52;15.25;;;10.55;;
64235;SDS011;50564;47.402;9.740;2023-05-27T06:43:53;12.43;;;9.60;;
64235;SDS011;50564;47.402;9.740;2023-05-27T06:49:10;15.10;;;11.10;;
64235;SDS011;50564;47.402;9.740;2023-05-27T06:54:11;15.38;;;10.93;;
64235;SDS011;50564;47.402;9.740;2023-05-27T06:59:16;14.27;;;10.50;;
64235;SDS011;50564;47.402;9.740;2023-05-27T07:04:17;13.73;;;10.20;;
64235;SDS011;50564;47.402;9.740;2023-05-27T07:09:28;17.15;;;10.50;;
64235;SDS011;50564;47.402;9.740;2023-05-27T07:14:28;15.35;;;10.82;;
64235;SDS011;50564;47.402;9.740;2023-05-27T07:19:29;15.07;;;11.25;;
64235;SDS011;50564;47.402;9.740;2023-05-27T07:24:35;14.70;;;10.95;;
64235;SDS011;50564;47.402;9.740;2023-05-27T07:29:38;11.68;;;9.73;;
64235;SDS011;50564;47.402;9.740;2023-05-27T07:34:47;12.55;;;10.52;;
64235;SDS011;50564;47.402;9.740;2023-05-27T07:39:48;14.60;;;10.93;;
64235;SDS011;50564;47.402;9.740;2023-05-27T07:44:53;15.68;;;9.95;;
64235;SDS011;50564;47.402;9.740;2023-05-27T07:49:54;14.63;;;11.10;;
64235;SDS011;50564;47.402;9.740;2023-05-27T07:55:15;11.93;;;9.48;;
64235;SDS011;50564;47.402;9.740;2023-05-27T08:00:17;14.38;;;9.95;;
64235;SDS011;50564;47.402;9.740;2023-05-27T08:05:26;13.77;;;10.90;;
64235;SDS011;50564;47.402;9.740;2023-05-27T08:10:53;20.95;;;11.00;;
64235;SDS011;50564;47.402;9.740;2023-05-27T08:16:16;14.95;;;11.57;;
64235;SDS011;50564;47.402;9.740;2023-05-27T08:21:21;16.73;;;11.20;;
64235;SDS011;50564;47.402;9.740;2023-05-27T08:26:42;18.30;;;11.23;;
64235;SDS011;50564;47.402;9.740;2023-05-27T08:31:50;15.60;;;11.43;;
64235;SDS011;50564;47.402;9.740;2023-05-27T08:36:54;17.10;;;13.05;;
64235;SDS011;50564;47.402;9.740;2023-05-27T08:41:55;16.17;;;11.55;;
64235;SDS011;50564;47.402;9.740;2023-05-27T08:46:56;18.45;;;12.55;;
64235;SDS011;50564;47.402;9.740;2023-05-27T08:51:57;18.85;;;11.95;;
64235;SDS011;50564;47.402;9.740;2023-05-27T08:57:01;16.27;;;11.98;;
64235;SDS011;50564;47.402;9.740;2023-05-27T09:02:09;12.38;;;10.40;;
64235;SDS011;50564;47.402;9.740;2023-05-27T09:07:12;15.10;;;11.10;;
64235;SDS011;50564;47.402;9.740;2023-05-27T09:12:13;12.85;;;10.20;;
64235;SDS011;50564;47.402;9.740;2023-05-27T09:17:23;15.93;;;11.65;;
64235;SDS011;50564;47.402;9.740;2023-05-27T09:22:30;15.38;;;11.43;;
64235;SDS011;50564;47.402;9.740;2023-05-27T09:27:31;19.50;;;12.48;;
64235;SDS011;50564;47.402;9.740;2023-05-27T09:32:32;15.52;;;11.32;;
64235;SDS011;50564;47.402;9.740;2023-05-27T09:37:33;17.90;;;11.93;;
64235;SDS011;50564;47.402;9.740;2023-05-27T09:42:44;18.23;;;11.88;;
64235;SDS011;50564;47.402;9.740;2023-05-27T09:47:52;15.90;;;12.10;;
64235;SDS011;50564;47.402;9.740;2023-05-27T09:52:53;18.88;;;13.57;;
64235;SDS011;50564;47.402;9.740;2023-05-27T09:57:55;17.33;;;13.32;;
64235;SDS011;50564;47.402;9.740;2023-05-27T10:02:55;17.13;;;12.10;;
64235;SDS011;50564;47.402;9.740;2023-05-27T10:07:59;18.17;;;13.18;;
64235;SDS011;50564;47.402;9.740;2023-05-27T10:12:59;17.25;;;13.05;;
64235;SDS011;50564;47.402;9.740;2023-05-27T10:18:04;16.20;;;13.13;;
64235;SDS011;50564;47.402;9.740;2023-05-27T10:23:10;14.18;;;11.07;;
64235;SDS011;50564;47.402;9.740;2023-05-27T10:28:11;16.95;;;12.27;;
64235;SDS011;50564;47.402;9.740;2023-05-27T10:33:33;15.27;;;11.77;;
64235;SDS011;50564;47.402;9.740;2023-05-27T10:38:35;17.02;;;11.85;;
64235;SDS011;50564;47.402;9.740;2023-05-27T10:43:36;16.38;;;12.00;;
64235;SDS011;50564;47.402;9.740;2023-05-27T10:48:37;13.25;;;10.52;;
64235;SDS011;50564;47.402;9.740;2023-05-27T10:53:39;17.70;;;12.65;;
64235;SDS011;50564;47.402;9.740;2023-05-27T10:58:40;19.30;;;12.07;;
64235;SDS011;50564;47.402;9.740;2023-05-27T11:03:41;16.38;;;11.30;;
64235;SDS011;50564;47.402;9.740;2023-05-27T11:08:43;15.70;;;10.07;;
64235;SDS011;50564;47.402;9.740;2023-05-27T11:13:45;14.98;;;10.88;;
64235;SDS011;50564;47.402;9.740;2023-05-27T11:18:47;13.90;;;10.48;;
64235;SDS011;50564;47.402;9.740;2023-05-27T11:23:48;14.88;;;11.20;;
64235;SDS011;50564;47.402;9.740;2023-05-27T11:28:49;13.63;;;10.73;;
64235;SDS011;50564;47.402;9.740;2023-05-27T11:33:55;14.43;;;10.27;;
64235;SDS011;50564;47.402;9.740;2023-05-27T11:38:56;14.27;;;11.45;;
64235;SDS011;50564;47.402;9.740;2023-05-27T11:44:05;11.88;;;9.73;;
64235;SDS011;50564;47.402;9.740;2023-05-27T11:49:07;11.07;;;7.93;;
64235;SDS011;50564;47.402;9.740;2023-05-27T11:54:27;11.20;;;7.90;;
64235;SDS011;50564;47.402;9.740;2023-05-27T11:59:29;14.07;;;9.27;;
64235;SDS011;50564;47.402;9.740;2023-05-27T12:04:30;12.60;;;8.50;;
64235;SDS011;50564;47.402;9.740;2023-05-27T12:09:31;12.50;;;7.15;;
64235;SDS011;50564;47.402;9.740;2023-05-27T12:14:32;11.07;;;8.57;;
64235;SDS011;50564;47.402;9.740;2023-05-27T12:19:32;12.25;;;7.28;;
64235;SDS011;50564;47.402;9.740;2023-05-27T12:24:34;10.85;;;8.00;;
64235;SDS011;50564;47.402;9.740;2023-05-27T12:29:35;11.60;;;7.18;;
64235;SDS011;50564;47.402;9.740;2023-05-27T12:34:35;8.75;;;6.18;;
64235;SDS011;50564;47.402;9.740;2023-05-27T12:39:36;8.40;;;6.30;;
64235;SDS011;50564;47.402;9.740;2023-05-27T12:44:36;9.57;;;6.70;;
64235;SDS011;50564;47.402;9.740;2023-05-27T12:49:37;8.98;;;6.25;;
64235;SDS011;50564;47.402;9.740;2023-05-27T12:54:38;9.80;;;5.53;;
64235;SDS011;50564;47.402;9.740;2023-05-27T12:59:38;10.02;;;5.85;;
64235;SDS011;50564;47.402;9.740;2023-05-27T13:04:39;7.50;;;4.78;;
64235;SDS011;50564;47.402;9.740;2023-05-27T13:09:40;10.07;;;5.20;;
64235;SDS011;50564;47.402;9.740;2023-05-27T13:14:41;11.50;;;5.20;;
64235;SDS011;50564;47.402;9.740;2023-05-27T13:19:43;6.93;;;4.88;;
64235;SDS011;50564;47.402;9.740;2023-05-27T13:24:43;6.70;;;4.65;;
64235;SDS011;50564;47.402;9.740;2023-05-27T13:29:45;6.38;;;4.47;;
64235;SDS011;50564;47.402;9.740;2023-05-27T13:34:46;13.60;;;8.20;;
64235;SDS011;50564;47.402;9.740;2023-05-27T13:39:47;8.00;;;4.97;;
64235;SDS011;50564;47.402;9.740;2023-05-27T13:44:48;8.60;;;4.90;;
64235;SDS011;50564;47.402;9.740;2023-05-27T13:49:48;6.70;;;4.55;;
64235;SDS011;50564;47.402;9.740;2023-05-27T13:54:49;5.95;;;4.20;;
64235;SDS011;50564;47.402;9.740;2023-05-27T13:59:50;7.90;;;4.65;;
64235;SDS011;50564;47.402;9.740;2023-05-27T14:04:50;5.60;;;4.18;;
64235;SDS011;50564;47.402;9.740;2023-05-27T14:09:51;6.45;;;4.03;;
64235;SDS011;50564;47.402;9.740;2023-05-27T14:14:52;6.13;;;4.38;;
64235;SDS011;50564;47.402;9.740;2023-05-27T14:19:53;6.50;;;4.22;;
64235;SDS011;50564;47.402;9.740;2023-05-27T14:24:53;5.57;;;3.83;;
64235;SDS011;50564;47.402;9.740;2023-05-27T14:29:54;7.20;;;4.45;;
64235;SDS011;50564;47.402;9.740;2023-05-27T14:34:54;6.55;;;4.25;;
64235;SDS011;50564;47.402;9.740;2023-05-27T14:39:56;7.38;;;4.57;;
64235;SDS011;50564;47.402;9.740;2023-05-27T14:44:57;6.03;;;4.03;;
64235;SDS011;50564;47.402;9.740;2023-05-27T14:49:57;8.13;;;4.97;;
64235;SDS011;50564;47.402;9.740;2023-05-27T14:54:58;9.50;;;5.00;;
64235;SDS011;50564;47.402;9.740;2023-05-27T14:59:58;11.38;;;5.25;;
64235;SDS011;50564;47.402;9.740;2023-05-27T15:04:59;7.25;;;4.68;;
64235;SDS011;50564;47.402;9.740;2023-05-27T15:10:00;6.00;;;4.20;;
64235;SDS011;50564;47.402;9.740;2023-05-27T15:15:01;8.55;;;4.72;;
64235;SDS011;50564;47.402;9.740;2023-05-27T15:20:02;7.00;;;4.68;;
64235;SDS011;50564;47.402;9.740;2023-05-27T15:25:03;8.32;;;5.35;;
64235;SDS011;50564;47.402;9.740;2023-05-27T15:30:05;7.47;;;4.55;;
64235;SDS011;50564;47.402;9.740;2023-05-27T15:35:06;8.93;;;4.45;;
64235;SDS011;50564;47.402;9.740;2023-05-27T15:40:08;7.78;;;5.22;;
64235;SDS011;50564;47.402;9.740;2023-05-27T15:45:09;8.13;;;4.32;;
64235;SDS011;50564;47.402;9.740;2023-05-27T15:50:10;7.28;;;4.00;;
64235;SDS011;50564;47.402;9.740;2023-05-27T15:55:10;7.32;;;4.72;;
64235;SDS011;50564;47.402;9.740;2023-05-27T16:00:11;7.25;;;4.22;;
64235;SDS011;50564;47.402;9.740;2023-05-27T16:05:12;7.63;;;4.80;;
64235;SDS011;50564;47.402;9.740;2023-05-27T16:10:14;8.52;;;4.80;;
64235;SDS011;50564;47.402;9.740;2023-05-27T16:15:15;8.50;;;4.57;;
64235;SDS011;50564;47.402;9.740;2023-05-27T16:20:15;8.95;;;4.68;;
64235;SDS011;50564;47.402;9.740;2023-05-27T16:25:16;6.75;;;4.57;;
64235;SDS011;50564;47.402;9.740;2023-05-27T16:30:17;8.73;;;4.53;;
64235;SDS011;50564;47.402;9.740;2023-05-27T16:35:18;7.30;;;4.80;;
64235;SDS011;50564;47.402;9.740;2023-05-27T16:40:19;7.97;;;4.60;;
64235;SDS011;50564;47.402;9.740;2023-05-27T16:45:20;9.48;;;5.30;;
64235;SDS011;50564;47.402;9.740;2023-05-27T16:50:24;9.82;;;5.10;;
64235;SDS011;50564;47.402;9.740;2023-05-27T16:55:25;8.45;;;4.88;;
64235;SDS011;50564;47.402;9.740;2023-05-27T17:00:25;7.78;;;5.13;;
64235;SDS011;50564;47.402;9.740;2023-05-27T17:05:26;8.43;;;5.22;;
64235;SDS011;50564;47.402;9.740;2023-05-27T17:10:27;8.50;;;5.25;;
64235;SDS011;50564;47.402;9.740;2023-05-27T17:15:27;9.85;;;5.90;;
64235;SDS011;50564;47.402;9.740;2023-05-27T17:20:28;10.00;;;5.97;;
64235;SDS011;50564;47.402;9.740;2023-05-27T17:25:29;8.95;;;5.38;;
64235;SDS011;50564;47.402;9.740;2023-05-27T17:30:30;9.20;;;6.05;;
64235;SDS011;50564;47.402;9.740;2023-05-27T17:35:32;8.25;;;5.63;;
64235;SDS011;50564;47.402;9.740;2023-05-27T17:40:32;9.00;;;6.03;;
64235;SDS011;50564;47.402;9.740;2023-05-27T17:45:33;9.27;;;5.75;;
64235;SDS011;50564;47.402;9.740;2023-05-27T17:50:34;13.80;;;5.55;;
64235;SDS011;50564;47.402;9.740;2023-05-27T17:55:34;11.10;;;6.32;;
64235;SDS011;50564;47.402;9.740;2023-05-27T18:00:35;10.30;;;6.57;;
64235;SDS011;50564;47.402;9.740;2023-05-27T18:05:36;9.23;;;5.53;;
64235;SDS011;50564;47.402;9.740;2023-05-27T18:10:36;9.45;;;6.10;;
64235;SDS011;50564;47.402;9.740;2023-05-27T18:15:37;11.32;;;5.57;;
64235;SDS011;50564;47.402;9.740;2023-05-27T18:20:38;10.25;;;6.03;;
64235;SDS011;50564;47.402;9.740;2023-05-27T18:25:38;7.60;;;5.50;;
64235;SDS011;50564;47.402;9.740;2023-05-27T18:30:39;10.18;;;6.10;;
64235;SDS011;50564;47.402;9.740;2023-05-27T18:35:40;8.90;;;5.78;;
64235;SDS011;50564;47.402;9.740;2023-05-27T18:40:41;9.38;;;5.78;;
64235;SDS011;50564;47.402;9.740;2023-05-27T18:45:52;9.18;;;5.72;;
64235;SDS011;50564;47.402;9.740;2023-05-27T18:50:55;8.82;;;5.80;;
64235;SDS011;50564;47.402;9.740;2023-05-27T18:55:57;9.93;;;6.15;;
64235;SDS011;50564;47.402;9.740;2023-05-27T19:00:57;13.55;;;6.45;;
64235;SDS011;50564;47.402;9.740;2023-05-27T19:05:58;11.40;;;6.45;;
64235;SDS011;50564;47.402;9.740;2023-05-27T19:10:59;11.05;;;6.50;;
64235;SDS011;50564;47.402;9.740;2023-05-27T19:15:59;10.52;;;6.22;;
64235;SDS011;50564;47.402;9.740;2023-05-27T19:21:00;11.70;;;6.18;;
64235;SDS011;50564;47.402;9.740;2023-05-27T19:26:00;11.30;;;6.07;;
64235;SDS011;50564;47.402;9.740;2023-05-27T19:31:01;10.27;;;6.38;;
64235;SDS011;50564;47.402;9.740;2023-05-27T19:36:02;11.07;;;8.55;;
64235;SDS011;50564;47.402;9.740;2023-05-27T19:41:03;13.98;;;8.13;;
64235;SDS011;50564;47.402;9.740;2023-05-27T19:46:04;14.45;;;7.25;;
64235;SDS011;50564;47.402;9.740;2023-05-27T19:51:05;10.60;;;7.88;;
64235;SDS011;50564;47.402;9.740;2023-05-27T19:56:06;11.30;;;7.70;;
64235;SDS011;50564;47.402;9.740;2023-05-27T20:01:07;11.10;;;6.97;;
64235;SDS011;50564;47.402;9.740;2023-05-27T20:06:08;10.02;;;7.82;;
64235;SDS011;50564;47.402;9.740;2023-05-27T20:11:12;13.73;;;8.13;;
64235;SDS011;50564;47.402;9.740;2023-05-27T20:16:13;9.77;;;7.78;;
64235;SDS011;50564;47.402;9.740;2023-05-27T20:21:14;15.05;;;9.18;;
64235;SDS011;50564;47.402;9.740;2023-05-27T20:26:15;10.07;;;7.88;;
64235;SDS011;50564;47.402;9.740;2023-05-27T20:31:15;15.27;;;8.50;;
64235;SDS011;50564;47.402;9.740;2023-05-27T20:36:16;10.25;;;7.38;;
64235;SDS011;50564;47.402;9.740;2023-05-27T20:41:17;10.27;;;7.18;;
64235;SDS011;50564;47.402;9.740;2023-05-27T20:46:17;14.65;;;7.22;;
64235;SDS011;50564;47.402;9.740;2023-05-27T20:51:22;10.05;;;7.07;;
64235;SDS011;50564;47.402;9.740;2023-05-27T20:56:25;10.30;;;7.22;;
64235;SDS011;50564;47.402;9.740;2023-05-27T21:01:28;9.38;;;6.65;;
64235;SDS011;50564;47.402;9.740;2023-05-27T21:06:29;10.82;;;7.97;;
64235;SDS011;50564;47.402;9.740;2023-05-27T21:11:30;10.70;;;7.50;;
64235;SDS011;50564;47.402;9.740;2023-05-27T21:16:31;12.05;;;7.85;;
64235;SDS011;50564;47.402;9.740;2023-05-27T21:21:32;16.25;;;9.45;;
64235;SDS011;50564;47.402;9.740;2023-05-27T21:26:32;14.90;;;8.30;;
64235;SDS011;50564;47.402;9.740;2023-05-27T21:31:33;10.38;;;7.18;;
64235;SDS011;50564;47.402;9.740;2023-05-27T21:36:33;11.90;;;8.18;;
64235;SDS011;50564;47.402;9.740;2023-05-27T21:41:35;11.40;;;7.50;;
64235;SDS011;50564;47.402;9.740;2023-05-27T21:46:36;12.23;;;7.88;;
64235;SDS011;50564;47.402;9.740;2023-05-27T21:51:36;13.30;;;7.70;;
64235;SDS011;50564;47.402;9.740;2023-05-27T21:56:38;15.80;;;8.00;;
64235;SDS011;50564;47.402;9.740;2023-05-27T22:01:39;11.20;;;7.82;;
64235;SDS011;50564;47.402;9.740;2023-05-27T22:06:40;12.93;;;7.38;;
64235;SDS011;50564;47.402;9.740;2023-05-27T22:11:44;13.85;;;9.95;;
64235;SDS011;50564;47.402;9.740;2023-05-27T22:16:44;12.43;;;7.55;;
64235;SDS011;50564;47.402;9.740;2023-05-27T22:21:45;15.05;;;7.47;;
64235;SDS011;50564;47.402;9.740;2023-05-27T22:26:46;12.93;;;7.75;;
64235;SDS011;50564;47.402;9.740;2023-05-27T22:31:47;12.57;;;8.20;;
64235;SDS011;50564;47.402;9.740;2023-05-27T22:36:48;13.65;;;9.52;;
64235;SDS011;50564;47.402;9.740;2023-05-27T22:41:48;15.13;;;8.27;;
64235;SDS011;50564;47.402;9.740;2023-05-27T22:46:49;10.82;;;7.45;;
64235;SDS011;50564;47.402;9.740;2023-05-27T22:51:50;13.88;;;7.85;;
64235;SDS011;50564;47.402;9.740;2023-05-27T22:56:50;13.63;;;8.63;;
64235;SDS011;50564;47.402;9.740;2023-05-27T23:01:51;12.10;;;8.52;;
64235;SDS011;50564;47.402;9.740;2023-05-27T23:06:51;14.10;;;8.20;;
64235;SDS011;50564;47.402;9.740;2023-05-27T23:11:52;11.88;;;8.27;;
64235;SDS011;50564;47.402;9.740;2023-05-27T23:16:53;12.52;;;7.72;;
64235;SDS011;50564;47.402;9.740;2023-05-27T23:21:55;12.63;;;8.05;;
64235;SDS011;50564;47.402;9.740;2023-05-27T23:26:56;12.07;;;7.07;;
64235;SDS011;50564;47.402;9.740;2023-05-27T23:31:57;14.27;;;7.97;;
64235;SDS011;50564;47.402;9.740;2023-05-27T23:36:57;10.85;;;8.15;;
64235;SDS011;50564;47.402;9.740;2023-05-27T23:41:58;11.98;;;7.85;;
64235;SDS011;50564;47.402;9.740;2023-05-27T23:46:58;12.43;;;8.73;;
64235;SDS011;50564;47.402;9.740;2023-05-27T23:51:59;12.13;;;7.97;;
64235;SDS011;50564;47.402;9.740;2023-05-27T23:57:00;10.15;;;7.60;;
